Flight Track Log - Related Links

Times and Time Zones

All times are in EDT time to prevent confusion due to time zone crossing. See the SWA1517 flight status page for this flight to view local times or setup timezone preferences in your user account.

Time Position Orientation Groundspeed Altitude Reporting Facility
EDT Latitude Longitude Course Direction KTS MPH feet Rate Location/Type
Fri 08:39:28 PM 29.6081 -95.2419 141° Southeast 202 232 1,900  Level Houston Center
Fri 08:40:13 PM 29.5736 -95.2067 138° Southeast 239 275 3,600 2,239 Climbing Houston Center
Fri 08:40:35 PM 29.5661 -95.1772 106° East 272 313 4,400 2,656 Climbing Houston Center
Fri 08:41:14 PM 29.5753 -95.1228 79° East 284 327 6,300 3,541 Climbing Houston Center
Fri 08:41:36 PM 29.5844 -95.0789 76° East 313 360 8,000 3,677 Climbing Houston Center
Fri 08:42:16 PM 29.5942 -95.0247 78° East 316 364 10,100 2,529 Climbing Houston Center
Fri 08:43:18 PM 29.6183 -94.9011 77° East 376 433 12,300 2,613 Climbing Houston Center
Fri 08:44:20 PM 29.6456 -94.7531 78° East 422 486 15,500 2,952 Climbing Houston Center
Fri 08:45:22 PM 29.6711 -94.6122 78° East 447 514 18,400 2,661 Climbing Houston Center
Fri 08:46:24 PM 29.6986 -94.4669 78° East 463 533 21,000 2,226 Climbing Houston Center
Fri 08:47:26 PM 29.7200 -94.3131 81° East 484 557 23,000 2,000 Climbing Houston Center
Fri 08:48:27 PM 29.7417 -94.1425 82° East 502 578 25,100 1,951 Climbing Houston Center
Fri 08:49:29 PM 29.7631 -93.9808 81° East 512 589 27,000 1,839 Climbing Houston Center
Fri 08:50:31 PM 29.7839 -93.8183 82° East 516 594 28,900 1,839 Climbing Houston Center
Fri 08:51:33 PM 29.8044 -93.6547 82° East 520 598 30,800 1,805 Climbing Houston Center
Fri 08:52:34 PM 29.8275 -93.4617 82° East 513 590 32,600 1,073 Climbing Houston Center
Fri 08:53:36 PM 29.8481 -93.3050 81° East 503 579 33,000 194 Climbing Houston Center
Fri 08:54:38 PM 29.8672 -93.1481 82° East 500 575 33,000  Level Houston Center
Fri 08:55:39 PM 29.8861 -92.9889 82° East 503 579 33,000 -49 Level Houston Center
Fri 08:56:41 PM 29.9058 -92.8306 82° East 504 580 32,900 -484 Descending Houston Center
Fri 08:57:43 PM 29.9242 -92.6700 82° East 508 585 32,000 -1,024 Descending Houston Center
Fri 08:58:44 PM 29.9472 -92.4761 82° East 511 588 30,800 -1,024 Descending Houston Center
Fri 08:59:46 PM 29.9661 -92.3108 82° East 519 597 29,900 -878 Descending Houston Center
Fri 09:00:47 PM 29.9856 -92.1406 82° East 533 613 29,000 -1,512 Descending Houston Center
Fri 09:01:49 PM 30.0061 -91.9664 82° East 546 628 26,800 -2,390 Descending Houston Center
Fri 09:02:50 PM 30.0244 -91.7992 83° East 533 613 24,100 -2,585 Descending Houston Center
Fri 09:03:52 PM 30.0433 -91.6356 82° East 509 586 21,500 -2,488 Descending Houston Center
Fri 09:04:53 PM 30.0611 -91.4842 82° East 485 558 19,000 -2,410 Descending Houston Center
Fri 09:05:54 PM 30.0747 -91.3403 84° East 461 531 16,600 -2,609 Descending Houston Center
Fri 09:06:25 PM 30.0842 -91.2489 83° East 435 501 15,000 -2,323 Descending Houston Center
Fri 09:06:56 PM 30.0900 -91.2039 81° East 436 502 14,200 -2,286 Descending Houston Center
Fri 09:07:07 PM 30.0944 -91.1572 84° East 420 483 13,400 -2,164 Descending Houston Center
Fri 09:07:57 PM 30.0964 -91.0508 89° East 409 471 12,000 -1,672 Descending Houston Center
Fri 09:08:08 PM 30.0936 -91.0350 101° East 377 434 11,700 -1,258 Descending Houston Center
Fri 09:08:59 PM 30.0692 -90.9436 107° East 358 412 10,700 -1,279 Descending Houston Center
Fri 09:09:09 PM 30.0614 -90.9206 111° Southeast 334 384 10,400 -1,574 Descending Houston Center
Fri 09:10:00 PM 30.0403 -90.8433 108° East 338 389 9,100 -1,418 Descending Houston Center
Fri 09:10:04 PM 30.0383 -90.8350 105° East 323 372 9,100 -1,552 Level Houston Center
Fri 09:10:58 PM 30.0131 -90.7469 108° East 317 365 7,600 -1,684 Descending Houston Center
Fri 09:11:01 PM 30.0144 -90.7464 19° North 327 376 7,500 -1,418 Descending Houston Center
Fri 09:11:53 PM 29.9897 -90.6589 108° East 312 359 6,300 -1,258 Descending Houston Center
Fri 09:12:03 PM 29.9886 -90.6517 100° East 320 368 6,200 -1,300 Descending Houston Center
Fri 09:12:53 PM 29.9519 -90.5739 119° Southeast 301 346 5,000 -1,279 Descending Houston Center
Fri 09:13:04 PM 29.9486 -90.5656 115° Southeast 310 357 4,900 -1,377 Descending Houston Center
Fri 09:13:54 PM 29.9078 -90.4917 123° Southeast 294 338 3,600 -1,452 Descending Houston Center
Fri 09:14:06 PM 29.9058 -90.4875 118° Southeast 299 344 3,400 -1,279 Descending Houston Center
Fri 09:14:55 PM 29.8700 -90.4092 118° Southeast 267 307 2,300 -1,279 Descending Houston Center
Fri 09:15:07 PM 29.8697 -90.3925 91° East 282 325 2,100 -247 Descending Houston Center
Fri 09:16:08 PM 29.8822 -90.3203 79° East 251 289 2,000 -244 Descending Houston Center
Fri 09:17:10 PM 29.9056 -90.2756 59° Northeast 206 237 1,600 -550 Descending Houston Center
Fri 09:17:57 PM 29.9367 -90.2675 13° North 133 153 1,000 -787 Descending Houston Center
Fri 09:18:11 PM 29.9444 -90.2658 11° North 167 192 800 -600 Descending Houston Center
Fri 09:18:57 PM 29.9678 -90.2567 19° North 119 137 400 -590 Descending Houston Center
Fri 09:19:12 PM 29.9775 -90.2556 North 140 161 200 -800 Descending Houston Center
Fri 09:21:00 PM 29.9833 -90.2500 26° Northeast  Level FlightAware

Login

Don't have an account? Register now (free) for customized features, flight alerts, and more!